Time;durP1;ratioP1;P1;durP2;ratioP2;P2;SDS_P1;SDS_P2;PMS_P1;PMS_P2;Temp;Humidity;BMP_temperature;BMP_pressure;BME280_temperature;BME280_humidity;BME280_pressure;Samples;Min_cycle;Max_cycle;Signal;HPM_P1;HPM_P2
2022/09/20 00:02:20;;;;;;;4.90;1.13;;;9.10;99.90;;;;;;5096860;28;20031;-61
2022/09/20 00:04:48;;;;;;;6.13;1.40;;;9.10;99.90;;;;;;5095445;28;20415;-62
2022/09/20 00:07:14;;;;;;;9.18;1.88;;;9.10;99.90;;;;;;5096268;28;20040;-62
2022/09/20 00:09:39;;;;;;;7.03;1.55;;;9.10;99.90;;;;;;5078475;28;20392;-62
2022/09/20 00:12:05;;;;;;;6.75;1.95;;;9.10;99.90;;;;;;5095106;28;20792;-62
2022/09/20 00:14:31;;;;;;;5.63;1.23;;;9.10;99.90;;;;;;5095907;28;20048;-61
2022/09/20 00:16:57;;;;;;;9.38;1.90;;;9.10;99.90;;;;;;5073256;28;20370;-62
2022/09/20 00:19:22;;;;;;;6.82;1.58;;;9.10;99.90;;;;;;5074975;28;20518;-61
2022/09/20 00:21:48;;;;;;;9.07;1.40;;;9.10;99.90;;;;;;5075205;28;20072;-62
2022/09/20 00:24:14;;;;;;;6.82;1.40;;;9.00;99.90;;;;;;5074582;28;20447;-62
2022/09/20 00:26:40;;;;;;;3.88;1.20;;;9.00;99.90;;;;;;5075828;28;20048;-62
2022/09/20 00:29:06;;;;;;;8.60;1.70;;;9.00;99.90;;;;;;5040711;28;20135;-62
2022/09/20 00:31:32;;;;;;;4.82;1.70;;;9.00;99.90;;;;;;5057407;28;20277;-62
2022/09/20 00:36:42;;;;;;;7.22;1.77;;;8.90;99.90;;;;;;5074225;28;20516;-62
2022/09/20 00:39:11;;;;;;;4.95;1.45;;;8.90;99.90;;;;;;5056462;28;20041;-62
2022/09/20 00:41:37;;;;;;;8.18;2.17;;;8.90;99.90;;;;;;5041034;28;20115;-62
2022/09/20 00:44:39;;;;;;;8.05;1.85;;;8.90;99.90;;;;;;5073645;28;20068;-62
2022/09/20 00:47:07;;;;;;;4.75;1.25;;;8.80;99.90;;;;;;5060333;28;20055;-61
2022/09/20 00:49:36;;;;;;;6.68;1.65;;;8.80;99.90;;;;;;5075583;28;20036;-62
2022/09/20 00:52:01;;;;;;;6.80;1.50;;;8.70;99.90;;;;;;5073906;28;20505;-62
2022/09/20 00:54:28;;;;;;;8.57;2.28;;;8.70;99.90;;;;;;5075359;28;20079;-62
2022/09/20 00:56:54;;;;;;;6.30;1.77;;;8.70;99.90;;;;;;5056523;28;20501;-62
2022/09/20 00:59:34;;;;;;;8.10;2.15;;;8.70;99.90;;;;;;5074397;28;20040;-62
2022/09/20 01:02:26;;;;;;;12.73;1.77;;;8.70;99.90;;;;;;5040476;28;20039;-62
2022/09/20 01:04:53;;;;;;;6.53;1.38;;;8.70;99.90;;;;;;5048575;28;20048;-62
2022/09/20 01:07:24;;;;;;;4.97;1.50;;;8.60;99.90;;;;;;5075355;28;20048;-61
2022/09/20 01:09:50;;;;;;;6.85;1.80;;;8.60;99.90;;;;;;5093321;28;20111;-61
2022/09/20 01:12:22;;;;;;;4.90;1.42;;;8.60;99.90;;;;;;5071710;28;20493;-61
2022/09/20 01:14:50;;;;;;;4.38;1.20;;;8.60;99.90;;;;;;5056160;28;20385;-61
2022/09/20 01:17:18;;;;;;;4.38;1.30;;;8.60;99.90;;;;;;5074889;28;20040;-62
2022/09/20 01:20:14;;;;;;;4.55;1.48;;;8.60;99.90;;;;;;5074811;28;20043;-62
2022/09/20 01:23:05;;;;;;;7.28;1.75;;;8.70;99.90;;;;;;5073499;28;20076;-61
2022/09/20 01:25:52;;;;;;;5.82;1.48;;;8.70;99.90;;;;;;5089501;28;20044;-61
2022/09/20 01:28:19;;;;;;;7.68;1.73;;;8.70;99.90;;;;;;5056010;28;20123;-62
2022/09/20 01:30:47;;;;;;;3.55;1.30;;;8.70;99.90;;;;;;5039620;28;20055;-61
2022/09/20 01:33:30;;;;;;;5.53;1.33;;;8.80;99.90;;;;;;5074774;28;20068;-62
2022/09/20 01:35:59;;;;;;;5.00;1.50;;;8.80;99.90;;;;;;5055673;28;20051;-62
2022/09/20 01:39:02;;;;;;;6.32;1.25;;;8.90;99.90;;;;;;5061105;28;20040;-62
2022/09/20 01:41:55;;;;;;;7.72;1.50;;;9.00;99.90;;;;;;5094197;28;20427;-61
2022/09/20 01:44:29;;;;;;;7.10;1.67;;;9.10;99.90;;;;;;5094927;28;20097;-61
2022/09/20 01:47:05;;;;;;;9.35;1.75;;;9.20;99.90;;;;;;5094133;28;20047;-62
2022/09/20 01:49:58;;;;;;;11.68;2.20;;;9.30;99.90;;;;;;5093639;28;20054;-62
2022/09/20 01:52:40;;;;;;;10.07;1.55;;;9.40;99.90;;;;;;5076833;28;20456;-62
2022/09/20 01:55:43;;;;;;;5.68;1.83;;;9.50;99.90;;;;;;5075358;28;20058;-62
2022/09/20 01:58:34;;;;;;;13.07;2.20;;;9.70;99.90;;;;;;5075634;28;20081;-62
2022/09/20 02:01:22;;;;;;;4.93;1.30;;;9.80;99.90;;;;;;5093559;28;20042;-62
2022/09/20 02:04:17;;;;;;;8.00;2.15;;;9.90;99.90;;;;;;5090008;28;20105;-62
2022/09/20 02:07:28;;;;;;;6.80;1.43;;;10.00;99.90;;;;;;5059736;28;20094;-61
2022/09/20 02:10:15;;;;;;;5.22;1.35;;;10.10;99.90;;;;;;5039660;28;20445;-61
2022/09/20 02:12:50;;;;;;;5.90;1.58;;;10.20;99.90;;;;;;5073965;28;20365;-62
2022/09/20 02:15:50;;;;;;;8.05;1.52;;;10.20;99.90;;;;;;5072465;28;20485;-62
2022/09/20 02:18:52;;;;;;;7.53;1.75;;;10.40;99.90;;;;;;5073526;28;20080;-61
2022/09/20 02:21:18;;;;;;;6.35;1.50;;;10.60;99.90;;;;;;5073231;28;20043;-62
2022/09/20 02:24:02;;;;;;;7.53;1.67;;;10.70;99.90;;;;;;5072963;28;20770;-62
2022/09/20 02:26:27;;;;;;;9.13;1.85;;;10.80;99.90;;;;;;5074608;28;20109;-61
2022/09/20 02:29:30;;;;;;;6.60;1.90;;;10.90;99.90;;;;;;5072098;28;20048;-62
2022/09/20 02:32:07;;;;;;;6.07;1.42;;;11.00;99.90;;;;;;5072513;28;20102;-62
2022/09/20 02:35:01;;;;;;;10.82;2.50;;;11.00;99.90;;;;;;5073484;28;20040;-62
2022/09/20 02:37:54;;;;;;;9.70;1.63;;;11.00;99.90;;;;;;5055466;28;20090;-62
2022/09/20 02:40:57;;;;;;;9.70;1.73;;;11.00;99.90;;;;;;5055496;28;20374;-61
2022/09/20 02:43:53;;;;;;;4.60;1.63;;;11.00;99.90;;;;;;5039180;28;20081;-62
2022/09/20 02:46:31;;;;;;;6.68;1.55;;;11.00;99.90;;;;;;5072516;28;20045;-62
2022/09/20 02:49:15;;;;;;;6.68;1.98;;;10.90;99.90;;;;;;5082285;28;20040;-62
2022/09/20 02:51:50;;;;;;;8.52;1.50;;;10.90;99.90;;;;;;5092734;28;20365;-62
2022/09/20 02:54:34;;;;;;;7.32;1.55;;;10.90;99.90;;;;;;5058758;28;20040;-62
2022/09/20 02:57:12;;;;;;;8.68;1.80;;;10.90;99.90;;;;;;5074650;28;20076;-62
2022/09/20 02:59:51;;;;;;;7.43;1.52;;;10.90;99.90;;;;;;5092646;28;20105;-61
2022/09/20 03:02:34;;;;;;;7.97;1.40;;;10.90;99.90;;;;;;5071310;28;20119;-62
2022/09/20 03:05:28;;;;;;;8.05;1.45;;;10.90;99.90;;;;;;5054532;28;20124;-62
2022/09/20 03:08:20;;;;;;;7.50;1.38;;;10.90;99.90;;;;;;5053519;28;20039;-61
2022/09/20 03:11:34;;;;;;;3.92;1.10;;;10.90;99.90;;;;;;5054396;28;20072;-62
2022/09/20 03:14:23;;;;;;;7.85;1.40;;;10.90;99.90;;;;;;5026422;28;20135;-62
2022/09/20 03:17:13;;;;;;;5.38;1.33;;;10.90;99.90;;;;;;5053987;28;20072;-62
2022/09/20 03:20:17;;;;;;;7.18;1.40;;;10.90;99.90;;;;;;5072817;28;20055;-61
2022/09/20 03:23:05;;;;;;;8.52;1.98;;;10.90;99.90;;;;;;5054270;28;20174;-62
2022/09/20 03:25:57;;;;;;;8.13;1.80;;;10.90;99.90;;;;;;5055178;28;20048;-61
2022/09/20 03:28:42;;;;;;;6.28;1.30;;;10.90;99.90;;;;;;5054327;28;20052;-62
2022/09/20 03:31:14;;;;;;;6.28;1.38;;;10.90;99.90;;;;;;5071970;28;20029;-62
2022/09/20 03:34:04;;;;;;;5.10;1.02;;;10.90;99.90;;;;;;5053890;28;20040;-62
2022/09/20 03:36:42;;;;;;;4.68;1.42;;;10.90;99.90;;;;;;5060762;28;20032;-62
2022/09/20 03:39:38;;;;;;;7.65;1.40;;;10.90;99.90;;;;;;5092047;28;20036;-62
2022/09/20 03:42:16;;;;;;;5.03;1.20;;;10.90;99.90;;;;;;5073259;28;20040;-62
2022/09/20 03:45:11;;;;;;;7.88;1.65;;;10.90;99.90;;;;;;5074601;28;20055;-62
2022/09/20 03:47:39;;;;;;;5.55;1.23;;;10.90;99.90;;;;;;5092678;28;20484;-61
2022/09/20 03:50:34;;;;;;;6.45;1.20;;;10.90;99.90;;;;;;5091227;28;20082;-62
2022/09/20 03:53:34;;;;;;;4.05;1.33;;;10.90;99.90;;;;;;5091918;28;20093;-62
2022/09/20 03:56:27;;;;;;;5.35;1.67;;;10.90;99.90;;;;;;5069552;28;20048;-61
2022/09/20 03:59:35;;;;;;;10.23;1.58;;;10.90;99.90;;;;;;5091845;28;20043;-62
2022/09/20 04:02:25;;;;;;;6.20;1.50;;;10.90;99.90;;;;;;5090371;28;20117;-61
2022/09/20 04:05:15;;;;;;;6.00;1.10;;;10.90;99.90;;;;;;5091497;28;20111;-62
2022/09/20 04:07:47;;;;;;;4.07;1.35;;;10.90;99.90;;;;;;5092231;28;20481;-62
2022/09/20 04:10:50;;;;;;;6.07;1.38;;;10.90;99.90;;;;;;5091740;28;20044;-62
2022/09/20 04:13:36;;;;;;;4.60;1.40;;;10.90;99.90;;;;;;5072624;28;20041;-62
2022/09/20 04:16:41;;;;;;;4.65;1.65;;;10.90;99.90;;;;;;5077382;28;20045;-62
2022/09/20 04:19:41;;;;;;;6.75;1.33;;;10.90;99.90;;;;;;5053525;28;20499;-61
2022/09/20 04:22:07;;;;;;;5.30;1.15;;;10.90;99.90;;;;;;5071435;28;20413;-61
2022/09/20 04:24:52;;;;;;;10.07;1.67;;;10.80;99.90;;;;;;5071500;28;20111;-62
2022/09/20 04:27:42;;;;;;;6.32;1.58;;;10.90;99.90;;;;;;5054359;28;20102;-62
2022/09/20 04:30:25;;;;;;;5.85;1.30;;;10.90;99.90;;;;;;5052618;28;20056;-62
2022/09/20 04:33:00;;;;;;;11.38;1.48;;;10.90;99.90;;;;;;5053789;28;20459;-62
2022/09/20 04:38:36;;;;;;;5.22;1.02;;;11.00;99.90;;;;;;5009065;28;20093;-62
2022/09/20 04:41:15;;;;;;;7.32;1.63;;;11.00;99.90;;;;;;5024692;28;20053;-62
2022/09/20 04:44:13;;;;;;;5.25;1.70;;;11.00;99.90;;;;;;5072500;28;20424;-62
2022/09/20 04:46:48;;;;;;;5.05;1.60;;;11.00;99.90;;;;;;5070453;28;20067;-62
2022/09/20 04:49:51;;;;;;;6.55;1.13;;;11.10;99.90;;;;;;5068937;28;20500;-61
2022/09/20 04:52:20;;;;;;;7.10;1.67;;;11.00;99.90;;;;;;5094845;28;20079;-62
2022/09/20 04:54:57;;;;;;;7.32;1.80;;;11.00;99.90;;;;;;5094538;28;20119;-62
2022/09/20 04:57:41;;;;;;;5.85;1.30;;;11.00;99.90;;;;;;5093954;28;20123;-62
2022/09/20 05:00:19;;;;;;;8.18;1.80;;;11.00;99.90;;;;;;5094263;28;20036;-62
2022/09/20 05:02:53;;;;;;;10.05;1.58;;;11.00;99.90;;;;;;5095404;28;20040;-62
2022/09/20 05:06:06;;;;;;;8.57;1.63;;;11.00;99.90;;;;;;5076686;28;20089;-62
2022/09/20 05:08:47;;;;;;;5.03;1.23;;;11.00;99.90;;;;;;4992102;28;20053;-62
2022/09/20 05:11:46;;;;;;;7.82;1.60;;;10.90;99.90;;;;;;4994049;28;20038;-62
2022/09/20 05:14:33;;;;;;;6.30;1.65;;;10.90;99.90;;;;;;5057059;28;20052;-62
2022/09/20 05:17:32;;;;;;;7.95;1.95;;;10.90;99.90;;;;;;5056209;28;20118;-61
2022/09/20 05:20:33;;;;;;;8.75;2.65;;;10.80;99.90;;;;;;5072249;28;20040;-62
2022/09/20 05:23:16;;;;;;;5.18;1.50;;;10.70;99.90;;;;;;5074795;28;20063;-61
2022/09/20 05:26:09;;;;;;;4.53;1.75;;;10.70;99.90;;;;;;5074972;28;20149;-62
2022/09/20 05:28:48;;;;;;;6.25;1.90;;;10.60;99.90;;;;;;5056089;28;20059;-62
2022/09/20 05:31:44;;;;;;;3.25;1.30;;;10.60;99.90;;;;;;5074721;28;20041;-62
2022/09/20 05:34:45;;;;;;;9.15;1.92;;;10.50;99.90;;;;;;5074830;28;20101;-62
2022/09/20 05:37:29;;;;;;;6.90;1.77;;;10.50;99.90;;;;;;5056468;28;20079;-62
2022/09/20 05:40:14;;;;;;;6.55;1.40;;;10.40;99.90;;;;;;5073905;28;20481;-62
2022/09/20 05:42:46;;;;;;;;;;;10.40;99.90;;;;;;5056363;28;20052;-61
2022/09/20 05:45:20;;;;;;;6.95;1.42;;;10.30;99.90;;;;;;5074378;28;20429;-61
2022/09/20 05:48:10;;;;;;;7.60;1.80;;;10.30;99.90;;;;;;5057910;28;20127;-62
2022/09/20 05:50:50;;;;;;;8.63;2.03;;;10.30;99.90;;;;;;5056464;28;20045;-61
2022/09/20 05:53:38;;;;;;;5.13;1.92;;;10.30;99.90;;;;;;5093820;28;20040;-61
2022/09/20 05:56:40;;;;;;;5.60;1.60;;;10.40;99.90;;;;;;5092137;28;20126;-61
2022/09/20 05:59:25;;;;;;;7.75;1.40;;;10.40;99.90;;;;;;5082927;28;20036;-61
2022/09/20 06:02:01;;;;;;;6.68;1.80;;;10.40;99.90;;;;;;5072843;28;20037;-62
2022/09/20 06:04:42;;;;;;;9.75;2.85;;;10.50;99.90;;;;;;5083245;28;20064;-61
2022/09/20 06:07:45;;;;;;;9.57;2.58;;;10.50;99.90;;;;;;5084914;28;20040;-61
2022/09/20 06:10:14;;;;;;;8.65;2.40;;;10.60;99.90;;;;;;5030998;28;20397;-61
2022/09/20 06:13:11;;;;;;;9.30;2.10;;;10.70;99.90;;;;;;5056451;28;20486;-61
2022/09/20 06:15:57;;;;;;;7.43;1.42;;;10.70;99.90;;;;;;5055009;28;20085;-62
2022/09/20 06:18:30;;;;;;;9.02;1.40;;;10.80;99.90;;;;;;5055771;28;20041;-61
2022/09/20 06:21:32;;;;;;;6.28;1.55;;;10.80;99.90;;;;;;5074913;28;20056;-62
2022/09/20 06:24:00;;;;;;;6.53;1.70;;;10.90;99.90;;;;;;5065013;28;20048;-62
2022/09/20 06:26:34;;;;;;;9.05;1.90;;;10.90;99.90;;;;;;5075966;28;20040;-62
2022/09/20 06:29:04;;;;;;;4.80;1.40;;;10.90;99.90;;;;;;5074860;28;20055;-62
2022/09/20 06:31:30;;;;;;;6.18;1.48;;;11.00;99.90;;;;;;5074990;28;20044;-62
2022/09/20 06:34:02;;;;;;;10.68;1.73;;;11.10;99.90;;;;;;5074963;28;20399;-62
2022/09/20 06:42:25;;;;;;;6.72;1.63;;;11.50;99.90;;;;;;5057213;28;20059;-62
2022/09/20 06:44:51;;;;;;;13.23;1.92;;;11.60;99.90;;;;;;5081053;28;20033;-62
2022/09/20 06:47:17;;;;;;;6.65;2.20;;;11.70;99.90;;;;;;5067667;28;20171;-62
2022/09/20 06:49:45;;;;;;;7.75;2.03;;;11.80;99.90;;;;;;5054486;28;20384;-62
2022/09/20 06:52:14;;;;;;;6.43;1.48;;;11.90;99.90;;;;;;5073939;28;20112;-62
2022/09/20 06:54:44;;;;;;;9.70;1.60;;;12.00;99.90;;;;;;5091433;28;20040;-62
2022/09/20 06:57:23;;;;;;;6.45;2.47;;;12.00;99.90;;;;;;5053977;28;20055;-62
2022/09/20 07:00:05;;;;;;;7.97;1.42;;;12.10;99.90;;;;;;5067789;28;20037;-62
2022/09/20 07:02:31;;;;;;;4.97;1.38;;;12.10;99.90;;;;;;5072152;28;20039;-63
2022/09/20 07:04:57;;;;;;;6.00;1.27;;;12.20;99.90;;;;;;5109816;28;20042;-63
2022/09/20 07:07:24;;;;;;;6.60;1.60;;;12.30;99.90;;;;;;5060641;28;20048;-62
2022/09/20 07:09:50;;;;;;;5.63;1.77;;;12.30;99.90;;;;;;5045545;28;20040;-62
2022/09/20 07:12:15;;;;;;;5.65;1.60;;;12.40;99.90;;;;;;5057345;28;20051;-62
2022/09/20 07:14:43;;;;;;;7.50;1.63;;;12.50;99.90;;;;;;5088284;28;20036;-62
2022/09/20 07:17:08;;;;;;;11.10;1.73;;;12.60;99.90;;;;;;5064870;28;20045;-62
2022/09/20 07:19:35;;;;;;;10.38;1.70;;;12.60;99.90;;;;;;5083218;28;20047;-62
2022/09/20 07:22:01;;;;;;;6.10;1.58;;;12.70;99.90;;;;;;5071520;28;20067;-61
2022/09/20 07:24:29;;;;;;;7.32;1.70;;;12.80;99.90;;;;;;5072089;28;20477;-62
2022/09/20 07:27:06;;;;;;;6.80;2.38;;;12.90;99.90;;;;;;5089080;28;20495;-61
2022/09/20 07:29:33;;;;;;;7.93;1.60;;;13.00;99.90;;;;;;5072192;28;20055;-62
2022/09/20 07:31:59;;;;;;;6.05;1.38;;;13.00;99.90;;;;;;5071939;28;20100;-62
2022/09/20 07:34:26;;;;;;;7.00;1.92;;;13.10;99.90;;;;;;5054974;28;20044;-62
2022/09/20 07:36:51;;;;;;;8.38;2.70;;;13.20;99.90;;;;;;5071025;28;20123;-62
2022/09/20 07:39:17;;;;;;;4.45;1.40;;;13.20;99.90;;;;;;5080595;28;20174;-62
2022/09/20 07:41:50;;;;;;;9.63;3.65;;;13.30;99.90;;;;;;5097137;28;20358;-62
2022/09/20 07:44:26;;;;;;;9.45;2.15;;;13.40;99.90;;;;;;5062300;28;20036;-62
2022/09/20 07:46:59;;;;;;;7.13;2.05;;;13.40;99.90;;;;;;5054382;28;20040;-62
2022/09/20 07:49:29;;;;;;;7.30;1.40;;;13.50;99.90;;;;;;5068323;28;20142;-62
2022/09/20 07:51:55;;;;;;;33.53;20.85;;;13.60;99.90;;;;;;5068229;28;20048;-62
2022/09/20 07:54:20;;;;;;;6.88;2.15;;;13.70;99.90;;;;;;5087014;28;20036;-62
2022/09/20 07:56:46;;;;;;;112.43;67.35;;;13.80;99.90;;;;;;5088579;28;20480;-62
2022/09/20 07:59:13;;;;;;;13.50;7.75;;;13.90;99.90;;;;;;5071401;28;20051;-62
2022/09/20 08:01:39;;;;;;;7.75;2.05;;;14.00;99.90;;;;;;5087794;28;20078;-62
2022/09/20 08:04:08;;;;;;;5.50;1.60;;;14.20;99.90;;;;;;5066009;28;20028;-62
2022/09/20 08:06:40;;;;;;;6.20;1.40;;;14.40;99.90;;;;;;5073290;28;20044;-62
2022/09/20 08:09:07;;;;;;;4.95;1.20;;;14.50;99.90;;;;;;5050703;28;20144;-62
2022/09/20 08:11:34;;;;;;;4.18;1.05;;;14.50;99.90;;;;;;5040489;28;20094;-61
2022/09/20 08:14:00;;;;;;;7.85;1.52;;;14.50;99.90;;;;;;5070998;28;20044;-61
2022/09/20 08:16:28;;;;;;;6.95;1.10;;;14.40;99.90;;;;;;5073607;28;20040;-61
2022/09/20 08:18:56;;;;;;;5.05;1.30;;;14.30;99.90;;;;;;5060334;28;20519;-61
2022/09/20 08:21:23;;;;;;;6.68;2.72;;;14.30;99.90;;;;;;5072063;28;20043;-61
2022/09/20 08:23:49;;;;;;;5.15;1.38;;;14.20;99.90;;;;;;5086910;28;21533;-61
2022/09/20 08:26:17;;;;;;;4.75;1.08;;;14.20;99.90;;;;;;5063900;28;20044;-61
2022/09/20 08:28:48;;;;;;;4.25;0.80;;;14.20;99.90;;;;;;5084884;28;20043;-61
2022/09/20 08:31:18;;;;;;;4.07;1.45;;;14.30;99.90;;;;;;5075967;28;20044;-61
2022/09/20 08:33:44;;;;;;;4.65;0.98;;;14.30;99.90;;;;;;5093401;28;20055;-61
2022/09/20 08:36:16;;;;;;;4.30;1.05;;;14.40;99.90;;;;;;5047360;28;20481;-60
2022/09/20 08:38:42;;;;;;;4.97;1.20;;;14.40;99.90;;;;;;5058043;28;20044;-61
2022/09/20 08:41:16;;;;;;;7.63;1.50;;;14.40;99.90;;;;;;5073882;28;20857;-61
2022/09/20 08:43:56;;;;;;;5.60;1.25;;;14.50;99.90;;;;;;5070462;28;20044;-61
2022/09/20 08:46:28;;;;;;;2.97;0.90;;;14.50;99.90;;;;;;5067441;28;20062;-61
2022/09/20 08:48:56;;;;;;;7.85;1.10;;;14.60;99.90;;;;;;5070667;28;20044;-61
2022/09/20 08:51:29;;;;;;;7.00;1.95;;;14.60;99.90;;;;;;5094382;28;20040;-62
2022/09/20 08:53:57;;;;;;;5.03;1.10;;;14.60;99.90;;;;;;5091388;28;20097;-62
2022/09/20 08:56:28;;;;;;;7.07;1.63;;;14.60;99.90;;;;;;5087399;28;20039;-62
2022/09/20 08:58:56;;;;;;;5.13;1.35;;;14.60;99.90;;;;;;5074966;28;20410;-62
2022/09/20 09:01:25;;;;;;;5.82;1.20;;;14.50;99.90;;;;;;5061362;28;20501;-62
2022/09/20 09:03:56;;;;;;;5.28;1.40;;;14.50;99.90;;;;;;5075106;28;20040;-62
2022/09/20 09:06:23;;;;;;;6.10;1.38;;;14.50;99.90;;;;;;5090173;28;20055;-62
2022/09/20 09:08:52;;;;;;;5.97;1.38;;;14.40;99.90;;;;;;5079119;28;20056;-62
2022/09/20 09:11:20;;;;;;;6.22;1.58;;;14.40;99.90;;;;;;5075214;28;20472;-62
2022/09/20 09:14:03;;;;;;;5.03;1.08;;;14.40;99.90;;;;;;5077086;28;20429;-62
2022/09/20 09:16:32;;;;;;;7.18;1.58;;;14.50;99.90;;;;;;5061027;28;20478;-62
2022/09/20 09:19:24;;;;;;;6.90;1.05;;;14.60;99.90;;;;;;5074206;28;20396;-62
2022/09/20 09:21:54;;;;;;;3.92;1.38;;;14.90;99.90;;;;;;5057316;28;20086;-62
2022/09/20 09:24:23;;;;;;;7.45;1.30;;;15.00;99.90;;;;;;5073699;28;20408;-62
2022/09/20 09:26:48;;;;;;;6.47;1.60;;;15.10;99.90;;;;;;5071324;28;20044;-62
2022/09/20 09:29:22;;;;;;;5.13;1.23;;;15.20;99.90;;;;;;5100111;28;20051;-62
2022/09/20 09:31:50;;;;;;;3.92;1.15;;;15.20;99.90;;;;;;5074287;28;20080;-62
2022/09/20 09:34:28;;;;;;;3.42;1.00;;;15.30;99.90;;;;;;5057239;28;20041;-62
2022/09/20 09:36:55;;;;;;;5.55;1.13;;;15.30;99.90;;;;;;5055941;28;20496;-62
2022/09/20 09:39:29;;;;;;;4.85;1.17;;;15.30;99.90;;;;;;5074481;28;20033;-62
2022/09/20 09:41:59;;;;;;;5.55;1.48;;;15.30;99.90;;;;;;5073795;28;20097;-62
2022/09/20 09:44:34;;;;;;;6.63;2.25;;;15.30;99.90;;;;;;5093571;28;20507;-62
2022/09/20 09:47:00;;;;;;;5.90;1.42;;;15.20;99.90;;;;;;5085642;28;20037;-62
2022/09/20 09:49:34;;;;;;;4.93;1.30;;;15.20;99.90;;;;;;5076530;28;20043;-62
2022/09/20 09:52:14;;;;;;;5.03;1.80;;;15.20;99.90;;;;;;5059537;28;20081;-62
2022/09/20 09:54:46;;;;;;;7.78;1.55;;;15.20;99.90;;;;;;5075563;28;20036;-62
2022/09/20 09:57:20;;;;;;;5.55;1.23;;;15.20;99.90;;;;;;5094615;28;20044;-62
2022/09/20 10:00:10;;;;;;;7.20;1.85;;;15.40;99.90;;;;;;5092823;28;20047;-62
2022/09/20 10:03:07;;;;;;;8.35;2.03;;;15.50;99.90;;;;;;5085195;28;20078;-62
2022/09/20 10:06:00;;;;;;;11.75;1.85;;;15.40;99.90;;;;;;5075797;28;20044;-62
2022/09/20 10:09:03;;;;;;;7.75;1.63;;;15.30;99.90;;;;;;5038309;28;20113;-61
2022/09/20 10:11:48;;;;;;;4.07;1.42;;;15.30;99.90;;;;;;5071263;28;20033;-62
2022/09/20 10:14:45;;;;;;;7.97;1.55;;;15.20;99.90;;;;;;5074221;28;20125;-61
2022/09/20 10:17:33;;;;;;;6.78;1.42;;;15.30;99.90;;;;;;5059487;28;20044;-62
2022/09/20 10:20:24;;;;;;;10.80;2.30;;;15.40;99.90;;;;;;5073579;28;20043;-61
2022/09/20 10:23:13;;;;;;;7.72;1.90;;;15.50;99.90;;;;;;5093565;28;20527;-61
2022/09/20 10:25:55;;;;;;;6.53;1.58;;;15.50;99.90;;;;;;5071687;28;20039;-62
2022/09/20 10:28:57;;;;;;;7.85;1.38;;;15.50;99.90;;;;;;5077520;28;20038;-61
2022/09/20 10:31:42;;;;;;;6.10;1.20;;;15.50;99.90;;;;;;5055283;28;20387;-62
2022/09/20 10:34:25;;;;;;;5.25;1.25;;;15.40;99.90;;;;;;5084300;28;20421;-61
2022/09/20 10:36:59;;;;;;;7.03;1.83;;;15.40;99.90;;;;;;5085238;28;20453;-61
2022/09/20 10:39:37;;;;;;;6.35;1.20;;;15.30;99.90;;;;;;5071863;28;20393;-61
2022/09/20 10:45:44;;;;;;;4.82;0.80;;;15.30;99.80;;;;;;5073349;28;20047;-61
2022/09/20 10:48:30;;;;;;;4.85;1.15;;;15.30;98.50;;;;;;5046441;28;20044;-61
2022/09/20 10:51:38;;;;;;;4.28;1.17;;;15.40;98.70;;;;;;5094373;28;20044;-61
2022/09/20 10:54:19;;;;;;;9.88;1.40;;;15.50;98.40;;;;;;5054423;28;20524;-62
2022/09/20 10:56:55;;;;;;;8.27;1.27;;;15.80;98.10;;;;;;5054403;28;20055;-62
2022/09/20 10:59:53;;;;;;;7.38;1.55;;;15.90;97.40;;;;;;5058443;28;20419;-61
2022/09/20 11:02:32;;;;;;;4.05;1.02;;;15.90;96.30;;;;;;5071618;28;20481;-61
2022/09/20 11:05:23;;;;;;;4.57;1.20;;;15.70;97.20;;;;;;5037575;28;20047;-61
2022/09/20 11:07:57;;;;;;;7.55;1.27;;;15.70;97.10;;;;;;5072112;28;20068;-62
2022/09/20 11:10:41;;;;;;;5.90;1.73;;;15.70;97.00;;;;;;5083457;28;20053;-62
2022/09/20 11:13:32;;;;;;;3.75;1.27;;;15.60;97.30;;;;;;5076591;28;20032;-62
2022/09/20 11:16:22;;;;;;;5.32;1.45;;;15.70;97.00;;;;;;5084025;28;20051;-62
2022/09/20 11:18:49;;;;;;;8.27;1.77;;;15.80;95.90;;;;;;5067691;28;20040;-62
2022/09/20 11:21:22;;;;;;;5.75;1.70;;;15.80;95.90;;;;;;5073627;28;20071;-63
2022/09/20 11:24:12;;;;;;;3.05;1.08;;;15.90;94.90;;;;;;5070358;28;20408;-61
2022/09/20 11:26:51;;;;;;;4.43;1.35;;;15.80;93.40;;;;;;5070160;28;20080;-60
2022/09/20 11:29:19;;;;;;;4.00;1.08;;;15.60;93.00;;;;;;5071537;28;20045;-60
2022/09/20 11:31:49;;;;;;;3.03;0.80;;;15.50;93.60;;;;;;5053392;28;20047;-60
2022/09/20 11:34:52;;;;;;;4.85;0.88;;;15.60;93.20;;;;;;5055372;28;20044;-62
2022/09/20 11:37:19;;;;;;;3.75;0.93;;;15.80;92.80;;;;;;5053327;28;20386;-62
2022/09/20 11:39:55;;;;;;;3.75;1.10;;;15.90;93.00;;;;;;5060189;28;20052;-61
2022/09/20 11:42:29;;;;;;;3.67;0.80;;;16.00;93.80;;;;;;5058124;28;20071;-61
2022/09/20 11:44:55;;;;;;;3.25;1.05;;;16.00;94.20;;;;;;5068508;28;20127;-61
2022/09/20 11:47:34;;;;;;;4.20;0.90;;;16.10;94.50;;;;;;5066788;28;20115;-61
2022/09/20 11:50:18;;;;;;;5.78;1.20;;;16.10;94.50;;;;;;5059239;28;20037;-61
2022/09/20 11:53:02;;;;;;;5.43;1.00;;;16.00;94.90;;;;;;5050917;28;20048;-61
2022/09/20 11:55:49;;;;;;;3.53;0.80;;;15.80;94.40;;;;;;5069326;28;20123;-61
2022/09/20 11:58:19;;;;;;;4.90;0.88;;;15.80;94.00;;;;;;5071907;28;20390;-61
2022/09/20 12:00:48;;;;;;;4.80;1.20;;;15.80;93.70;;;;;;5067000;28;20045;-61
2022/09/20 12:03:36;;;;;;;4.78;0.90;;;15.80;92.40;;;;;;5071085;28;20067;-60
2022/09/20 12:06:05;;;;;;;5.63;0.93;;;15.80;91.70;;;;;;5047175;28;20048;-60
2022/09/20 12:08:30;;;;;;;3.58;0.70;;;15.80;92.70;;;;;;5048376;28;20451;-60
2022/09/20 12:11:03;;;;;;;5.15;1.13;;;15.80;93.60;;;;;;5054702;28;20119;-60
2022/09/20 12:13:32;;;;;;;3.13;0.93;;;15.90;94.00;;;;;;5067413;28;20040;-60
2022/09/20 12:16:36;;;;;;;3.65;0.98;;;16.00;93.00;;;;;;5065480;28;20078;-60
2022/09/20 12:19:05;;;;;;;6.25;1.30;;;16.00;93.50;;;;;;5068937;28;20401;-60
2022/09/20 12:21:57;;;;;;;4.90;1.02;;;15.90;94.30;;;;;;5067180;28;20489;-62
2022/09/20 12:24:23;;;;;;;6.70;1.20;;;16.00;93.90;;;;;;5058875;28;20044;-61
2022/09/20 12:26:50;;;;;;;7.10;1.20;;;16.00;94.40;;;;;;5074150;28;20135;-60
2022/09/20 12:29:31;;;;;;;4.32;0.90;;;16.00;94.70;;;;;;5066234;28;20129;-60
2022/09/20 12:32:00;;;;;;;5.60;1.10;;;16.00;94.60;;;;;;5048570;28;20056;-60
2022/09/20 12:34:27;;;;;;;5.85;1.13;;;16.00;95.00;;;;;;5068936;28;20040;-60
2022/09/20 12:36:55;;;;;;;4.10;1.23;;;16.10;94.20;;;;;;5049723;28;20137;-60
2022/09/20 12:39:52;;;;;;;5.43;1.05;;;16.10;94.00;;;;;;5068616;28;20045;-60
2022/09/20 12:42:17;;;;;;;5.30;1.20;;;16.10;93.80;;;;;;5049792;28;20048;-60
2022/09/20 12:44:57;;;;;;;3.78;1.20;;;16.10;93.20;;;;;;5054242;28;20125;-60
2022/09/20 12:47:30;;;;;;;4.03;0.90;;;16.20;91.90;;;;;;5054299;28;20074;-61
2022/09/20 12:53:02;;;;;;;4.18;0.80;;;16.10;92.40;;;;;;5081933;28;20067;-60
2022/09/20 12:55:30;;;;;;;4.03;1.05;;;16.10;92.10;;;;;;5054352;28;20079;-59
2022/09/20 12:57:58;;;;;;;2.90;1.02;;;16.10;91.50;;;;;;5087258;28;20097;-60
2022/09/20 13:00:50;;;;;;;6.63;0.88;;;16.10;91.10;;;;;;5087639;28;20044;-60
2022/09/20 13:03:38;;;;;;;2.45;0.70;;;16.10;90.40;;;;;;5070565;28;20097;-60
2022/09/20 13:06:14;;;;;;;4.43;0.95;;;16.20;90.70;;;;;;5079579;28;20077;-60
2022/09/20 13:08:54;;;;;;;5.18;1.27;;;16.30;91.60;;;;;;5053852;28;20489;-60
2022/09/20 13:11:46;;;;;;;3.70;1.17;;;16.30;95.10;;;;;;5072076;28;20051;-60
2022/09/20 13:14:31;;;;;;;4.35;1.23;;;16.20;95.80;;;;;;5053959;28;20040;-60
2022/09/20 13:17:11;;;;;;;7.78;1.38;;;16.00;96.20;;;;;;5065062;28;20044;-60
2022/09/20 13:19:43;;;;;;;7.00;1.63;;;15.90;97.00;;;;;;5059014;28;20032;-60
2022/09/20 13:22:33;;;;;;;8.65;1.35;;;15.90;97.80;;;;;;5073568;28;20063;-60
2022/09/20 13:25:02;;;;;;;5.75;1.55;;;16.00;98.30;;;;;;5081433;28;20037;-60
2022/09/20 13:27:33;;;;;;;7.57;1.35;;;16.00;98.70;;;;;;5074517;28;20036;-60
2022/09/20 13:30:21;;;;;;;6.80;1.75;;;15.90;99.20;;;;;;5056057;28;20049;-60
2022/09/20 13:32:48;;;;;;;7.57;1.27;;;15.80;99.80;;;;;;5073452;28;20047;-61
2022/09/20 13:35:31;;;;;;;7.65;1.13;;;15.80;99.90;;;;;;5056684;28;20056;-60
2022/09/20 13:38:01;;;;;;;7.97;1.17;;;15.80;99.90;;;;;;5092542;28;20044;-60
2022/09/20 13:40:34;;;;;;;6.15;1.55;;;15.90;99.90;;;;;;5076280;28;20353;-59
2022/09/20 13:43:29;;;;;;;6.65;1.30;;;15.90;99.60;;;;;;5094573;28;20032;-60
2022/09/20 13:46:07;;;;;;;3.60;1.00;;;15.80;99.10;;;;;;5047842;28;20041;-60
2022/09/20 13:48:33;;;;;;;5.38;1.17;;;15.70;98.70;;;;;;5082024;28;20032;-60
2022/09/20 13:50:59;;;;;;;7.05;1.55;;;15.70;98.80;;;;;;5065329;28;20044;-60
2022/09/20 13:53:26;;;;;;;8.60;1.77;;;15.60;98.80;;;;;;5091752;28;20032;-60
2022/09/20 13:55:55;;;;;;;5.20;1.42;;;15.60;99.10;;;;;;5091783;28;20044;-60
2022/09/20 13:58:32;;;;;;;7.28;1.63;;;15.70;99.60;;;;;;5094201;28;20040;-60
2022/09/20 14:01:02;;;;;;;4.20;1.20;;;15.80;99.90;;;;;;5056342;28;20054;-61
2022/09/20 14:03:31;;;;;;;7.28;1.58;;;15.80;99.90;;;;;;5073157;28;20122;-60
2022/09/20 14:06:10;;;;;;;9.40;1.42;;;15.90;99.90;;;;;;5072589;28;20430;-61